Aérodrome :
LOGIN :

S'inscrire | Disclaimer

   EN    FR    IT 

 










Légende :    VFR   VFR Marginal   IFR   IFR Intensif   IFR Très Intensif
Visi : 
Plafond : 
>= 8 km
>= 3000ft
5 à 8 km
1000 à 3000 ft
1500m à 5 km
500 à 1000 ft
800 à 1500m
200 à 500 ft
< 800m
< 200 ft
Symboles :   Orages  Brouillard  Fortes neiges  Fortes précipitations  Vent > 20 kt
SIGMETs :   Divers  Orages  Givrage  Turbulence  Onde Orograph.  Cendres Volcan.







- Altitude de l'aérodrome : 46 ft
- Code IATA : SNN


EINN - Shannon

DERNIER METAR :
  • 142100Z 16015KT 9999 FEW012 SCT045 BKN060 13/12 Q1008 NOSIG

METARs EXPIRÉS :
  • 142030Z 16017KT 9999 -RA FEW014 SCT036 BKN060 14/12 Q1008 NOSIG
  • 142000Z 16016KT 9999 FEW015 SCT038 BKN060 14/12 Q1008 NOSIG
  • 141930Z 16016KT 9999 FEW014 SCT024 BKN060 14/12 Q1007 NOSIG
  • 141900Z 17016KT 9999 FEW014 BKN022 BKN050 14/12 Q1007 NOSIG
  • 141830Z 17018KT 9999 FEW013 SCT023 BKN060 14/12 Q1007 NOSIG

TAF TAF EINN
Valide du 14 à 18h jusqu'au 15 à 18h UTC


141700Z 1418/1518 16017KT 9999 FEW015 BKN020
TEMPO 1418/1510 17020G30KT -RA BKN012
PROB30
TEMPO 1421/1510 5000 BKN008
BECMG 1510/1512 20012KT
PROB30
TEMPO 1511/1513 5000 RA
BECMG 1515/1517 17008KT
Pas de NOTAMs connus pour ce terrain.



MET'MAP, la Météo Aéronautique d'un coup d'oeil ! - Copyright ORBIFLY Décembre 2007 - Disclaimer

ORBIFLY MET'MAP TEAM :

Programmation & Développement : Alexandra Zaïnal
Conception & Développement : Baudouin d'Aumeries
Co-Programmation & Développement : Marc-Olivier Méhu
Soutien technique & logistique : Manuel Goepfert

Contact : metmap@orbifly.com




SOURCES & CREDITS :

   NOAA